sensor_id;sensor_type;location;lat;lon;timestamp;pressure;altitude;pressure_sealevel;temperature
68939;BMP180;59064;45.294;11.816;2023-04-03T00:00:49;101084.00;;;9.52
68939;BMP180;59064;45.294;11.816;2023-04-03T00:03:16;101079.20;;;9.50
68939;BMP180;59064;45.294;11.816;2023-04-03T00:05:41;101077.40;;;9.50
68939;BMP180;59064;45.294;11.816;2023-04-03T00:08:07;101076.40;;;9.50
68939;BMP180;59064;45.294;11.816;2023-04-03T00:10:35;101073.40;;;9.50
68939;BMP180;59064;45.294;11.816;2023-04-03T00:13:02;101075.40;;;9.50
68939;BMP180;59064;45.294;11.816;2023-04-03T00:15:27;101071.20;;;9.50
68939;BMP180;59064;45.294;11.816;2023-04-03T00:17:53;101068.60;;;9.50
68939;BMP180;59064;45.294;11.816;2023-04-03T00:20:18;101068.80;;;9.60
68939;BMP180;59064;45.294;11.816;2023-04-03T00:22:44;101066.60;;;9.68
68939;BMP180;59064;45.294;11.816;2023-04-03T00:25:10;101070.00;;;9.78
68939;BMP180;59064;45.294;11.816;2023-04-03T00:27:37;101066.20;;;9.88
68939;BMP180;59064;45.294;11.816;2023-04-03T00:30:03;101066.40;;;10.00
68939;BMP180;59064;45.294;11.816;2023-04-03T00:32:29;101070.40;;;10.08
68939;BMP180;59064;45.294;11.816;2023-04-03T00:34:55;101070.00;;;10.20
68939;BMP180;59064;45.294;11.816;2023-04-03T00:37:21;101067.80;;;10.30
68939;BMP180;59064;45.294;11.816;2023-04-03T00:39:47;101074.80;;;10.40
68939;BMP180;59064;45.294;11.816;2023-04-03T00:42:12;101079.20;;;10.40
68939;BMP180;59064;45.294;11.816;2023-04-03T00:47:05;101082.60;;;10.40
68939;BMP180;59064;45.294;11.816;2023-04-03T00:49:32;101076.60;;;10.40
68939;BMP180;59064;45.294;11.816;2023-04-03T00:51:58;101079.40;;;10.40
68939;BMP180;59064;45.294;11.816;2023-04-03T00:54:25;101072.00;;;10.40
68939;BMP180;59064;45.294;11.816;2023-04-03T00:56:52;101077.40;;;10.40
68939;BMP180;59064;45.294;11.816;2023-04-03T00:59:24;101078.80;;;10.44
68939;BMP180;59064;45.294;11.816;2023-04-03T01:01:53;101075.40;;;10.50
68939;BMP180;59064;45.294;11.816;2023-04-03T01:04:30;101069.60;;;10.50
68939;BMP180;59064;45.294;11.816;2023-04-03T01:07:00;101069.60;;;10.60
68939;BMP180;59064;45.294;11.816;2023-04-03T01:09:28;101070.60;;;10.60
68939;BMP180;59064;45.294;11.816;2023-04-03T01:11:54;101069.00;;;10.60
68939;BMP180;59064;45.294;11.816;2023-04-03T01:14:20;101073.60;;;10.60
68939;BMP180;59064;45.294;11.816;2023-04-03T01:16:53;101068.80;;;10.60
68939;BMP180;59064;45.294;11.816;2023-04-03T01:19:19;101064.20;;;10.60
68939;BMP180;59064;45.294;11.816;2023-04-03T01:22:15;101067.40;;;10.60
68939;BMP180;59064;45.294;11.816;2023-04-03T01:24:44;101070.80;;;10.70
68939;BMP180;59064;45.294;11.816;2023-04-03T01:27:11;101073.20;;;10.70
68939;BMP180;59064;45.294;11.816;2023-04-03T01:29:37;101072.00;;;10.70
68939;BMP180;59064;45.294;11.816;2023-04-03T01:32:03;101070.20;;;10.60
68939;BMP180;59064;45.294;11.816;2023-04-03T01:34:30;101071.80;;;10.60
68939;BMP180;59064;45.294;11.816;2023-04-03T01:36:56;101067.20;;;10.50
68939;BMP180;59064;45.294;11.816;2023-04-03T01:39:22;101072.80;;;10.50
68939;BMP180;59064;45.294;11.816;2023-04-03T01:41:48;101067.60;;;10.40
68939;BMP180;59064;45.294;11.816;2023-04-03T01:44:14;101069.80;;;10.40
68939;BMP180;59064;45.294;11.816;2023-04-03T01:46:40;101070.40;;;10.48
68939;BMP180;59064;45.294;11.816;2023-04-03T01:49:07;101068.00;;;10.48
68939;BMP180;59064;45.294;11.816;2023-04-03T01:51:33;101062.60;;;10.50
68939;BMP180;59064;45.294;11.816;2023-04-03T01:53:58;101062.20;;;10.50
68939;BMP180;59064;45.294;11.816;2023-04-03T01:56:24;101060.20;;;10.50
68939;BMP180;59064;45.294;11.816;2023-04-03T01:58:50;101053.20;;;10.60
68939;BMP180;59064;45.294;11.816;2023-04-03T02:01:17;101049.00;;;10.60
68939;BMP180;59064;45.294;11.816;2023-04-03T02:03:43;101050.80;;;10.60
68939;BMP180;59064;45.294;11.816;2023-04-03T02:06:08;101050.40;;;10.70
68939;BMP180;59064;45.294;11.816;2023-04-03T02:08:34;101048.80;;;10.80
68939;BMP180;59064;45.294;11.816;2023-04-03T02:10:59;101046.00;;;10.80
68939;BMP180;59064;45.294;11.816;2023-04-03T02:13:25;101053.00;;;10.80
68939;BMP180;59064;45.294;11.816;2023-04-03T02:15:50;101047.60;;;10.70
68939;BMP180;59064;45.294;11.816;2023-04-03T02:18:16;101048.20;;;10.68
68939;BMP180;59064;45.294;11.816;2023-04-03T02:20:42;101045.00;;;10.60
68939;BMP180;59064;45.294;11.816;2023-04-03T02:23:09;101039.80;;;10.60
68939;BMP180;59064;45.294;11.816;2023-04-03T02:25:35;101041.80;;;10.60
68939;BMP180;59064;45.294;11.816;2023-04-03T02:28:00;101039.60;;;10.60
68939;BMP180;59064;45.294;11.816;2023-04-03T02:30:26;101041.40;;;10.60
68939;BMP180;59064;45.294;11.816;2023-04-03T02:32:52;101041.20;;;10.60
68939;BMP180;59064;45.294;11.816;2023-04-03T02:35:19;101044.00;;;10.50
68939;BMP180;59064;45.294;11.816;2023-04-03T02:37:45;101039.80;;;10.40
68939;BMP180;59064;45.294;11.816;2023-04-03T02:40:11;101039.20;;;10.38
68939;BMP180;59064;45.294;11.816;2023-04-03T02:42:36;101041.00;;;10.30
68939;BMP180;59064;45.294;11.816;2023-04-03T02:45:02;101040.80;;;10.20
68939;BMP180;59064;45.294;11.816;2023-04-03T02:47:28;101042.40;;;10.14
68939;BMP180;59064;45.294;11.816;2023-04-03T02:49:53;101043.80;;;10.20
68939;BMP180;59064;45.294;11.816;2023-04-03T02:52:19;101054.00;;;10.26
68939;BMP180;59064;45.294;11.816;2023-04-03T02:54:45;101049.80;;;10.20
68939;BMP180;59064;45.294;11.816;2023-04-03T02:57:12;101049.40;;;10.22
68939;BMP180;59064;45.294;11.816;2023-04-03T02:59:37;101044.60;;;10.20
68939;BMP180;59064;45.294;11.816;2023-04-03T03:02:10;101048.00;;;10.22
68939;BMP180;59064;45.294;11.816;2023-04-03T03:04:35;101045.60;;;10.24
68939;BMP180;59064;45.294;11.816;2023-04-03T03:07:01;101047.20;;;10.30
68939;BMP180;59064;45.294;11.816;2023-04-03T03:09:27;101047.80;;;10.30
68939;BMP180;59064;45.294;11.816;2023-04-03T03:11:53;101047.80;;;10.30
68939;BMP180;59064;45.294;11.816;2023-04-03T03:14:18;101051.80;;;10.26
68939;BMP180;59064;45.294;11.816;2023-04-03T03:16:44;101048.80;;;10.20
68939;BMP180;59064;45.294;11.816;2023-04-03T03:19:09;101048.00;;;10.10
68939;BMP180;59064;45.294;11.816;2023-04-03T03:21:35;101048.60;;;10.00
68939;BMP180;59064;45.294;11.816;2023-04-03T03:24:01;101050.20;;;10.00
68939;BMP180;59064;45.294;11.816;2023-04-03T03:26:26;101050.60;;;9.90
68939;BMP180;59064;45.294;11.816;2023-04-03T03:28:52;101049.20;;;9.82
68939;BMP180;59064;45.294;11.816;2023-04-03T03:31:17;101052.20;;;9.80
68939;BMP180;59064;45.294;11.816;2023-04-03T03:33:43;101051.20;;;9.70
68939;BMP180;59064;45.294;11.816;2023-04-03T03:36:08;101053.00;;;9.60
68939;BMP180;59064;45.294;11.816;2023-04-03T03:38:34;101054.80;;;9.60
68939;BMP180;59064;45.294;11.816;2023-04-03T03:40:59;101051.60;;;9.60
68939;BMP180;59064;45.294;11.816;2023-04-03T03:43:27;101055.40;;;9.60
68939;BMP180;59064;45.294;11.816;2023-04-03T03:45:53;101054.00;;;9.58
68939;BMP180;59064;45.294;11.816;2023-04-03T03:48:20;101058.80;;;9.56
68939;BMP180;59064;45.294;11.816;2023-04-03T03:50:47;101055.80;;;9.60
68939;BMP180;59064;45.294;11.816;2023-04-03T03:53:12;101062.00;;;9.60
68939;BMP180;59064;45.294;11.816;2023-04-03T03:55:38;101058.60;;;9.60
68939;BMP180;59064;45.294;11.816;2023-04-03T03:58:03;101064.20;;;9.60
68939;BMP180;59064;45.294;11.816;2023-04-03T04:00:30;101069.80;;;9.60
68939;BMP180;59064;45.294;11.816;2023-04-03T04:02:56;101072.00;;;9.50
68939;BMP180;59064;45.294;11.816;2023-04-03T04:05:22;101074.00;;;9.50
68939;BMP180;59064;45.294;11.816;2023-04-03T04:07:47;101072.40;;;9.42
68939;BMP180;59064;45.294;11.816;2023-04-03T04:10:13;101075.20;;;9.40
68939;BMP180;59064;45.294;11.816;2023-04-03T04:12:39;101081.00;;;9.40
68939;BMP180;59064;45.294;11.816;2023-04-03T04:15:05;101083.40;;;9.38
68939;BMP180;59064;45.294;11.816;2023-04-03T04:17:30;101082.40;;;9.30
68939;BMP180;59064;45.294;11.816;2023-04-03T04:19:56;101088.40;;;9.28
68939;BMP180;59064;45.294;11.816;2023-04-03T04:22:22;101081.60;;;9.20
68939;BMP180;59064;45.294;11.816;2023-04-03T04:24:47;101088.40;;;9.20
68939;BMP180;59064;45.294;11.816;2023-04-03T04:27:13;101091.80;;;9.20
68939;BMP180;59064;45.294;11.816;2023-04-03T04:29:38;101091.20;;;9.20
68939;BMP180;59064;45.294;11.816;2023-04-03T04:32:04;101091.60;;;9.20
68939;BMP180;59064;45.294;11.816;2023-04-03T04:34:30;101094.80;;;9.20
68939;BMP180;59064;45.294;11.816;2023-04-03T04:36:55;101091.20;;;9.20
68939;BMP180;59064;45.294;11.816;2023-04-03T04:39:21;101094.00;;;9.30
68939;BMP180;59064;45.294;11.816;2023-04-03T04:41:47;101094.80;;;9.40
68939;BMP180;59064;45.294;11.816;2023-04-03T04:44:12;101097.20;;;9.42
68939;BMP180;59064;45.294;11.816;2023-04-03T04:46:38;101096.80;;;9.50
68939;BMP180;59064;45.294;11.816;2023-04-03T04:49:03;101102.40;;;9.50
68939;BMP180;59064;45.294;11.816;2023-04-03T04:51:29;101110.60;;;9.50
68939;BMP180;59064;45.294;11.816;2023-04-03T04:53:55;101106.60;;;9.50
68939;BMP180;59064;45.294;11.816;2023-04-03T04:56:20;101098.40;;;9.40
68939;BMP180;59064;45.294;11.816;2023-04-03T04:58:46;101106.60;;;9.30
68939;BMP180;59064;45.294;11.816;2023-04-03T05:01:11;101100.60;;;9.30
68939;BMP180;59064;45.294;11.816;2023-04-03T05:03:37;101104.40;;;9.30
68939;BMP180;59064;45.294;11.816;2023-04-03T05:06:03;101101.20;;;9.30
68939;BMP180;59064;45.294;11.816;2023-04-03T05:08:29;101107.40;;;9.30
68939;BMP180;59064;45.294;11.816;2023-04-03T05:10:54;101109.00;;;9.40
68939;BMP180;59064;45.294;11.816;2023-04-03T05:13:20;101109.40;;;9.40
68939;BMP180;59064;45.294;11.816;2023-04-03T05:15:46;101115.80;;;9.50
68939;BMP180;59064;45.294;11.816;2023-04-03T05:18:12;101111.20;;;9.60
68939;BMP180;59064;45.294;11.816;2023-04-03T05:20:38;101114.60;;;9.62
68939;BMP180;59064;45.294;11.816;2023-04-03T05:23:04;101118.00;;;9.70
68939;BMP180;59064;45.294;11.816;2023-04-03T05:25:30;101126.60;;;9.80
68939;BMP180;59064;45.294;11.816;2023-04-03T05:27:55;101129.40;;;9.80
68939;BMP180;59064;45.294;11.816;2023-04-03T05:30:21;101131.20;;;9.90
68939;BMP180;59064;45.294;11.816;2023-04-03T05:32:47;101134.40;;;10.00
68939;BMP180;59064;45.294;11.816;2023-04-03T05:35:12;101134.40;;;10.14
68939;BMP180;59064;45.294;11.816;2023-04-03T05:37:38;101137.60;;;10.28
68939;BMP180;59064;45.294;11.816;2023-04-03T05:40:05;101139.60;;;10.40
68939;BMP180;59064;45.294;11.816;2023-04-03T05:42:31;101136.60;;;10.50
68939;BMP180;59064;45.294;11.816;2023-04-03T05:44:57;101140.40;;;10.60
68939;BMP180;59064;45.294;11.816;2023-04-03T05:47:22;101148.00;;;10.70
68939;BMP180;59064;45.294;11.816;2023-04-03T05:49:48;101146.80;;;10.80
68939;BMP180;59064;45.294;11.816;2023-04-03T05:54:49;101145.60;;;10.90
68939;BMP180;59064;45.294;11.816;2023-04-03T05:57:15;101148.80;;;10.90
68939;BMP180;59064;45.294;11.816;2023-04-03T05:59:44;101149.40;;;11.00
68939;BMP180;59064;45.294;11.816;2023-04-03T06:02:16;101151.60;;;11.10
68939;BMP180;59064;45.294;11.816;2023-04-03T06:04:42;101155.60;;;11.20
68939;BMP180;59064;45.294;11.816;2023-04-03T06:07:12;101158.00;;;11.30
68939;BMP180;59064;45.294;11.816;2023-04-03T06:09:38;101160.60;;;11.40
68939;BMP180;59064;45.294;11.816;2023-04-03T06:12:04;101159.20;;;11.50
68939;BMP180;59064;45.294;11.816;2023-04-03T06:14:30;101160.80;;;11.62
68939;BMP180;59064;45.294;11.816;2023-04-03T06:16:56;101165.00;;;11.70
68939;BMP180;59064;45.294;11.816;2023-04-03T06:19:21;101167.60;;;11.80
68939;BMP180;59064;45.294;11.816;2023-04-03T06:21:47;101167.60;;;11.90
68939;BMP180;59064;45.294;11.816;2023-04-03T06:24:17;101165.80;;;11.90
68939;BMP180;59064;45.294;11.816;2023-04-03T06:26:43;101166.40;;;12.00
68939;BMP180;59064;45.294;11.816;2023-04-03T06:29:09;101165.80;;;12.10
68939;BMP180;59064;45.294;11.816;2023-04-03T06:31:34;101166.00;;;12.10
68939;BMP180;59064;45.294;11.816;2023-04-03T06:34:01;101161.60;;;12.04
68939;BMP180;59064;45.294;11.816;2023-04-03T06:36:28;101166.20;;;12.02
68939;BMP180;59064;45.294;11.816;2023-04-03T06:38:54;101169.40;;;12.10
68939;BMP180;59064;45.294;11.816;2023-04-03T06:41:20;101168.20;;;12.20
68939;BMP180;59064;45.294;11.816;2023-04-03T06:43:46;101170.80;;;12.30
68939;BMP180;59064;45.294;11.816;2023-04-03T06:46:17;101174.20;;;12.34
68939;BMP180;59064;45.294;11.816;2023-04-03T06:48:44;101175.20;;;12.38
68939;BMP180;59064;45.294;11.816;2023-04-03T06:51:25;101173.60;;;12.40
68939;BMP180;59064;45.294;11.816;2023-04-03T06:53:53;101177.00;;;12.42
68939;BMP180;59064;45.294;11.816;2023-04-03T06:56:19;101174.20;;;12.52
68939;BMP180;59064;45.294;11.816;2023-04-03T06:58:46;101177.20;;;12.60
68939;BMP180;59064;45.294;11.816;2023-04-03T07:01:13;101184.20;;;12.60
68939;BMP180;59064;45.294;11.816;2023-04-03T07:03:40;101183.60;;;12.70
68939;BMP180;59064;45.294;11.816;2023-04-03T07:06:06;101190.80;;;12.70
68939;BMP180;59064;45.294;11.816;2023-04-03T07:08:33;101186.80;;;12.80
68939;BMP180;59064;45.294;11.816;2023-04-03T07:10:59;101194.00;;;12.90
68939;BMP180;59064;45.294;11.816;2023-04-03T07:13:25;101193.40;;;12.96
68939;BMP180;59064;45.294;11.816;2023-04-03T07:15:51;101198.00;;;13.00
68939;BMP180;59064;45.294;11.816;2023-04-03T07:18:17;101188.40;;;13.00
68939;BMP180;59064;45.294;11.816;2023-04-03T07:20:43;101180.60;;;12.90
68939;BMP180;59064;45.294;11.816;2023-04-03T07:23:09;101182.20;;;12.80
68939;BMP180;59064;45.294;11.816;2023-04-03T07:25:36;101194.60;;;12.70
68939;BMP180;59064;45.294;11.816;2023-04-03T07:28:01;101199.80;;;12.70
68939;BMP180;59064;45.294;11.816;2023-04-03T07:30:27;101189.80;;;12.76
68939;BMP180;59064;45.294;11.816;2023-04-03T07:32:52;101196.00;;;12.66
68939;BMP180;59064;45.294;11.816;2023-04-03T07:35:18;101202.40;;;12.72
68939;BMP180;59064;45.294;11.816;2023-04-03T07:37:44;101204.00;;;12.84
68939;BMP180;59064;45.294;11.816;2023-04-03T07:40:10;101204.60;;;12.80
68939;BMP180;59064;45.294;11.816;2023-04-03T07:42:36;101218.20;;;12.90
68939;BMP180;59064;45.294;11.816;2023-04-03T07:45:03;101220.60;;;12.90
68939;BMP180;59064;45.294;11.816;2023-04-03T07:47:28;101216.00;;;12.90
68939;BMP180;59064;45.294;11.816;2023-04-03T07:49:54;101220.20;;;13.00
68939;BMP180;59064;45.294;11.816;2023-04-03T07:52:19;101208.60;;;13.20
68939;BMP180;59064;45.294;11.816;2023-04-03T07:54:45;101215.00;;;13.10
68939;BMP180;59064;45.294;11.816;2023-04-03T07:57:10;101197.00;;;13.06
68939;BMP180;59064;45.294;11.816;2023-04-03T07:59:36;101217.40;;;13.18
68939;BMP180;59064;45.294;11.816;2023-04-03T08:02:02;101220.20;;;13.60
68939;BMP180;59064;45.294;11.816;2023-04-03T08:04:30;101223.80;;;13.80
68939;BMP180;59064;45.294;11.816;2023-04-03T08:06:56;101216.60;;;13.70
68939;BMP180;59064;45.294;11.816;2023-04-03T08:09:22;101213.00;;;13.70
68939;BMP180;59064;45.294;11.816;2023-04-03T08:11:48;101219.00;;;13.86
68939;BMP180;59064;45.294;11.816;2023-04-03T08:14:13;101221.40;;;13.90
68939;BMP180;59064;45.294;11.816;2023-04-03T08:16:45;101218.20;;;14.00
68939;BMP180;59064;45.294;11.816;2023-04-03T08:19:10;101219.20;;;14.10
68939;BMP180;59064;45.294;11.816;2023-04-03T08:21:40;101218.40;;;14.16
68939;BMP180;59064;45.294;11.816;2023-04-03T08:24:07;101209.00;;;13.90
68939;BMP180;59064;45.294;11.816;2023-04-03T08:26:33;101219.20;;;13.90
68939;BMP180;59064;45.294;11.816;2023-04-03T08:28:59;101220.40;;;13.90
68939;BMP180;59064;45.294;11.816;2023-04-03T08:31:24;101231.00;;;13.90
68939;BMP180;59064;45.294;11.816;2023-04-03T08:33:50;101218.80;;;14.00
68939;BMP180;59064;45.294;11.816;2023-04-03T08:36:29;101226.80;;;13.76
68939;BMP180;59064;45.294;11.816;2023-04-03T08:38:56;101214.00;;;13.70
68939;BMP180;59064;45.294;11.816;2023-04-03T08:49:22;101218.60;;;13.70
68939;BMP180;59064;45.294;11.816;2023-04-03T08:51:51;101226.00;;;13.70
68939;BMP180;59064;45.294;11.816;2023-04-03T08:54:30;101218.80;;;13.60
68939;BMP180;59064;45.294;11.816;2023-04-03T08:56:58;101229.80;;;13.60
68939;BMP180;59064;45.294;11.816;2023-04-03T08:59:29;101198.80;;;13.50
68939;BMP180;59064;45.294;11.816;2023-04-03T09:01:57;101222.80;;;13.36
68939;BMP180;59064;45.294;11.816;2023-04-03T09:04:25;101229.00;;;13.40
68939;BMP180;59064;45.294;11.816;2023-04-03T09:06:55;101226.00;;;13.50
68939;BMP180;59064;45.294;11.816;2023-04-03T09:09:37;101229.20;;;13.60
68939;BMP180;59064;45.294;11.816;2023-04-03T09:15:15;101229.20;;;13.90
68939;BMP180;59064;45.294;11.816;2023-04-03T09:20:25;101206.60;;;14.00
68939;BMP180;59064;45.294;11.816;2023-04-03T09:22:52;101228.20;;;13.86
68939;BMP180;59064;45.294;11.816;2023-04-03T09:25:32;101226.20;;;13.80
68939;BMP180;59064;45.294;11.816;2023-04-03T09:28:00;101222.20;;;13.96
68939;BMP180;59064;45.294;11.816;2023-04-03T09:30:27;101230.20;;;14.00
68939;BMP180;59064;45.294;11.816;2023-04-03T09:32:55;101223.20;;;14.10
68939;BMP180;59064;45.294;11.816;2023-04-03T09:37:51;101227.80;;;13.90
68939;BMP180;59064;45.294;11.816;2023-04-03T09:40:38;101228.80;;;14.02
68939;BMP180;59064;45.294;11.816;2023-04-03T09:45:43;101219.60;;;14.40
68939;BMP180;59064;45.294;11.816;2023-04-03T09:53:44;101219.20;;;14.10
68939;BMP180;59064;45.294;11.816;2023-04-03T09:58:44;101204.60;;;14.40
68939;BMP180;59064;45.294;11.816;2023-04-03T10:01:56;101195.60;;;14.22
68939;BMP180;59064;45.294;11.816;2023-04-03T10:04:24;101209.20;;;14.00
68939;BMP180;59064;45.294;11.816;2023-04-03T10:06:52;101193.80;;;14.02
68939;BMP180;59064;45.294;11.816;2023-04-03T10:09:24;101212.80;;;14.00
68939;BMP180;59064;45.294;11.816;2023-04-03T10:12:08;101201.80;;;14.18
68939;BMP180;59064;45.294;11.816;2023-04-03T10:14:58;101203.20;;;14.10
68939;BMP180;59064;45.294;11.816;2023-04-03T10:17:47;101208.60;;;14.00
68939;BMP180;59064;45.294;11.816;2023-04-03T10:20:24;101207.60;;;14.00
68939;BMP180;59064;45.294;11.816;2023-04-03T10:25:31;101203.60;;;14.28
68939;BMP180;59064;45.294;11.816;2023-04-03T10:28:05;101198.40;;;14.10
68939;BMP180;59064;45.294;11.816;2023-04-03T10:33:28;101212.60;;;13.84
68939;BMP180;59064;45.294;11.816;2023-04-03T10:39:20;101181.20;;;13.90
68939;BMP180;59064;45.294;11.816;2023-04-03T10:47:45;101197.20;;;14.42
68939;BMP180;59064;45.294;11.816;2023-04-03T10:50:29;101185.00;;;14.70
68939;BMP180;59064;45.294;11.816;2023-04-03T10:53:20;101174.60;;;14.74
68939;BMP180;59064;45.294;11.816;2023-04-03T10:58:28;101178.80;;;14.70
68939;BMP180;59064;45.294;11.816;2023-04-03T11:01:01;101186.00;;;14.60
68939;BMP180;59064;45.294;11.816;2023-04-03T11:03:50;101170.20;;;14.60
68939;BMP180;59064;45.294;11.816;2023-04-03T11:06:19;101176.40;;;14.50
68939;BMP180;59064;45.294;11.816;2023-04-03T11:11:19;101142.20;;;14.64
68939;BMP180;59064;45.294;11.816;2023-04-03T11:13:54;101144.80;;;14.50
68939;BMP180;59064;45.294;11.816;2023-04-03T11:16:25;101153.80;;;14.70
68939;BMP180;59064;45.294;11.816;2023-04-03T11:22:13;101145.40;;;15.00
68939;BMP180;59064;45.294;11.816;2023-04-03T11:24:43;101149.40;;;15.22
68939;BMP180;59064;45.294;11.816;2023-04-03T11:27:17;101134.80;;;15.32
68939;BMP180;59064;45.294;11.816;2023-04-03T11:29:48;101150.60;;;14.94
68939;BMP180;59064;45.294;11.816;2023-04-03T11:32:39;101137.40;;;14.98
68939;BMP180;59064;45.294;11.816;2023-04-03T11:35:07;101124.60;;;15.20
68939;BMP180;59064;45.294;11.816;2023-04-03T11:37:38;101130.80;;;15.30
68939;BMP180;59064;45.294;11.816;2023-04-03T11:43:07;101133.00;;;15.60
68939;BMP180;59064;45.294;11.816;2023-04-03T11:45:54;101126.80;;;15.80
68939;BMP180;59064;45.294;11.816;2023-04-03T11:50:58;101132.80;;;15.90
68939;BMP180;59064;45.294;11.816;2023-04-03T11:53:36;101124.60;;;16.14
68939;BMP180;59064;45.294;11.816;2023-04-03T12:01:48;101111.80;;;16.10
68939;BMP180;59064;45.294;11.816;2023-04-03T12:04:15;101112.40;;;16.10
68939;BMP180;59064;45.294;11.816;2023-04-03T12:06:42;101110.60;;;16.10
68939;BMP180;59064;45.294;11.816;2023-04-03T12:11:51;101100.60;;;16.68
68939;BMP180;59064;45.294;11.816;2023-04-03T12:14:17;101095.60;;;16.58
68939;BMP180;59064;45.294;11.816;2023-04-03T12:16:45;101096.20;;;16.68
68939;BMP180;59064;45.294;11.816;2023-04-03T12:27:09;101050.00;;;16.82
68939;BMP180;59064;45.294;11.816;2023-04-03T12:29:46;101078.60;;;16.70
68939;BMP180;59064;45.294;11.816;2023-04-03T12:37:38;101079.00;;;17.36
68939;BMP180;59064;45.294;11.816;2023-04-03T12:40:20;101071.20;;;17.60
68939;BMP180;59064;45.294;11.816;2023-04-03T12:43:13;101078.00;;;17.58
68939;BMP180;59064;45.294;11.816;2023-04-03T12:45:56;101061.60;;;17.92
68939;BMP180;59064;45.294;11.816;2023-04-03T12:48:27;101070.60;;;18.30
68939;BMP180;59064;45.294;11.816;2023-04-03T12:50:54;101056.00;;;18.16
68939;BMP180;59064;45.294;11.816;2023-04-03T12:53:23;101059.00;;;18.10
68939;BMP180;59064;45.294;11.816;2023-04-03T12:55:57;101055.40;;;18.20
68939;BMP180;59064;45.294;11.816;2023-04-03T12:58:43;101049.40;;;18.00
68939;BMP180;59064;45.294;11.816;2023-04-03T13:03:34;101056.20;;;18.18
68939;BMP180;59064;45.294;11.816;2023-04-03T13:06:02;101055.60;;;18.32
68939;BMP180;59064;45.294;11.816;2023-04-03T13:08:29;101054.60;;;18.40
68939;BMP180;59064;45.294;11.816;2023-04-03T13:10:59;101067.00;;;18.50
68939;BMP180;59064;45.294;11.816;2023-04-03T13:13:26;101057.80;;;18.60
68939;BMP180;59064;45.294;11.816;2023-04-03T13:15:52;101058.60;;;18.36
68939;BMP180;59064;45.294;11.816;2023-04-03T13:18:33;101062.20;;;18.14
68939;BMP180;59064;45.294;11.816;2023-04-03T13:21:05;101051.40;;;17.76
68939;BMP180;59064;45.294;11.816;2023-04-03T13:23:32;101050.40;;;17.70
68939;BMP180;59064;45.294;11.816;2023-04-03T13:25:59;101048.20;;;18.20
68939;BMP180;59064;45.294;11.816;2023-04-03T13:28:29;101040.00;;;18.66
68939;BMP180;59064;45.294;11.816;2023-04-03T13:33:29;101045.60;;;19.26
68939;BMP180;59064;45.294;11.816;2023-04-03T13:36:02;101016.80;;;19.46
68939;BMP180;59064;45.294;11.816;2023-04-03T13:38:30;101039.20;;;19.44
68939;BMP180;59064;45.294;11.816;2023-04-03T13:41:05;101046.20;;;19.74
68939;BMP180;59064;45.294;11.816;2023-04-03T13:43:46;101039.40;;;19.50
68939;BMP180;59064;45.294;11.816;2023-04-03T13:48:50;101043.20;;;19.34
68939;BMP180;59064;45.294;11.816;2023-04-03T13:56:37;101045.40;;;19.98
68939;BMP180;59064;45.294;11.816;2023-04-03T13:59:20;101027.80;;;20.10
68939;BMP180;59064;45.294;11.816;2023-04-03T14:04:22;101039.40;;;20.60
68939;BMP180;59064;45.294;11.816;2023-04-03T14:06:48;101019.40;;;20.46
68939;BMP180;59064;45.294;11.816;2023-04-03T14:09:17;101035.60;;;20.14
68939;BMP180;59064;45.294;11.816;2023-04-03T14:11:44;101035.40;;;20.30
68939;BMP180;59064;45.294;11.816;2023-04-03T14:14:20;101038.80;;;20.74
68939;BMP180;59064;45.294;11.816;2023-04-03T14:16:52;101038.00;;;21.00
68939;BMP180;59064;45.294;11.816;2023-04-03T14:19:22;101021.60;;;20.98
68939;BMP180;59064;45.294;11.816;2023-04-03T14:21:48;101022.40;;;20.64
68939;BMP180;59064;45.294;11.816;2023-04-03T14:24:16;101035.00;;;20.50
68939;BMP180;59064;45.294;11.816;2023-04-03T14:26:43;101035.80;;;20.64
68939;BMP180;59064;45.294;11.816;2023-04-03T14:29:10;101033.80;;;20.90
68939;BMP180;59064;45.294;11.816;2023-04-03T14:31:36;101034.80;;;21.08
68939;BMP180;59064;45.294;11.816;2023-04-03T14:34:01;101032.60;;;21.30
68939;BMP180;59064;45.294;11.816;2023-04-03T14:36:28;101036.40;;;21.40
68939;BMP180;59064;45.294;11.816;2023-04-03T14:38:54;101028.00;;;21.70
68939;BMP180;59064;45.294;11.816;2023-04-03T14:41:22;101037.60;;;21.58
68939;BMP180;59064;45.294;11.816;2023-04-03T14:43:49;101015.00;;;21.52
68939;BMP180;59064;45.294;11.816;2023-04-03T14:46:36;101029.40;;;21.00
68939;BMP180;59064;45.294;11.816;2023-04-03T14:49:04;101036.60;;;20.90
68939;BMP180;59064;45.294;11.816;2023-04-03T14:51:33;101029.20;;;20.90
68939;BMP180;59064;45.294;11.816;2023-04-03T14:53:59;101022.40;;;20.60
68939;BMP180;59064;45.294;11.816;2023-04-03T14:56:28;101027.60;;;20.60
68939;BMP180;59064;45.294;11.816;2023-04-03T14:59:01;101032.00;;;20.70
68939;BMP180;59064;45.294;11.816;2023-04-03T15:01:27;101027.40;;;21.00
68939;BMP180;59064;45.294;11.816;2023-04-03T15:03:53;101034.20;;;20.80
68939;BMP180;59064;45.294;11.816;2023-04-03T15:06:20;101033.20;;;20.86
68939;BMP180;59064;45.294;11.816;2023-04-03T15:08:47;101016.20;;;20.72
68939;BMP180;59064;45.294;11.816;2023-04-03T15:11:14;101022.40;;;20.66
68939;BMP180;59064;45.294;11.816;2023-04-03T15:13:40;101023.00;;;20.50
68939;BMP180;59064;45.294;11.816;2023-04-03T15:16:17;101025.20;;;20.42
68939;BMP180;59064;45.294;11.816;2023-04-03T15:18:43;101022.00;;;20.46
68939;BMP180;59064;45.294;11.816;2023-04-03T15:21:09;101017.20;;;20.22
68939;BMP180;59064;45.294;11.816;2023-04-03T15:23:35;101020.60;;;20.20
68939;BMP180;59064;45.294;11.816;2023-04-03T15:26:01;101016.80;;;19.98
68939;BMP180;59064;45.294;11.816;2023-04-03T15:28:33;101027.40;;;19.90
68939;BMP180;59064;45.294;11.816;2023-04-03T15:30:59;101025.60;;;19.90